East Carver, Massachusetts
Current Conditions -  °F | °C
As of 11:52 AM on Thursday 30 Oct 2014 (Local Time) from KPYM Reporting Station
Clear Clear  
Wind Chill: 57°   Ceiling: Unl
Heat Index: 57°   Visibility: 10mi
Dew Point: 41°   Wind: 6mph
Humidity: 55%   Direction: NA
Pressure: 29.93"   Gusts: NA
Location:  41.9272°N, 70.7516°W
Report Text: KPYM 301552Z AUTO VRB05KT 10SM CLR 14/05 A2993 RMK AO2 SLP134 T01390050
Loading
Personal Weather Stations






























Interactive Weather Map
Tropical Storm Tracking
New forecast layout! Learn more

10-Day Weather Forecast

Advertisements
Track Severe Weather on mobile